Terminal Aerodrome Forecast
Issued by NWS

Home | Current Version | Previous Version | Text Only | Print | Product List | Glossary On
Versions: 1 2 3 4 5 6 7 8 9 10 11 12 13 14 15 16
000
FTPA31 PHFO 310310 AAA
TAFHLI
TAF AMD
PHLI 310310Z 3103/3124 05015KT P6SM SCT020 BKN045
     FM311300 05011KT P6SM VCSH SCT018 BKN035
     FM311900 05012KT P6SM VCSH SCT020 BKN040=

USA.gov is the U.S. government's official web portal to all federal, state and local government web resources and services.